createdAt,value
2022-09-06T00:00:53.898Z,99449.00
2022-09-06T00:02:32.823Z,99456.00
2022-09-06T00:04:06.653Z,99448.00
2022-09-06T00:05:39.535Z,99449.00
2022-09-06T00:07:12.785Z,99447.00
2022-09-06T00:08:48.441Z,99447.00
2022-09-06T00:10:21.255Z,99450.00
2022-09-06T00:11:54.737Z,99442.00
2022-09-06T00:13:28.115Z,99433.00
2022-09-06T00:15:02.886Z,99440.00
2022-09-06T00:16:36.520Z,99435.00
2022-09-06T00:18:10.374Z,99443.00
2022-09-06T00:19:43.706Z,99438.00
2022-09-06T00:21:21.150Z,99431.00
2022-09-06T00:22:57.074Z,99428.00
2022-09-06T00:24:30.543Z,99427.00
2022-09-06T00:26:05.845Z,99428.00
2022-09-06T00:27:38.555Z,99424.00
2022-09-06T00:29:12.026Z,99424.00
2022-09-06T00:30:47.552Z,99425.00
2022-09-06T00:32:21.297Z,99422.00
2022-09-06T00:33:55.697Z,99420.00
2022-09-06T00:35:29.061Z,99420.00
2022-09-06T00:37:02.407Z,99420.00
2022-09-06T00:38:36.291Z,99410.00
2022-09-06T00:40:11.630Z,99413.00
2022-09-06T00:41:44.599Z,99418.00
2022-09-06T00:43:18.023Z,99410.00
2022-09-06T00:44:52.025Z,99410.00
2022-09-06T00:46:31.324Z,99405.00
2022-09-06T00:48:07.322Z,99401.00
2022-09-06T00:49:47.625Z,99408.00
2022-09-06T00:51:24.830Z,99407.00
2022-09-06T00:52:58.657Z,99406.00
2022-09-06T00:54:31.940Z,99403.00
2022-09-06T00:56:06.853Z,99401.00
2022-09-06T00:57:41.146Z,99404.00
2022-09-06T00:59:15.397Z,99395.00
2022-09-06T01:00:53.694Z,99404.00
2022-09-06T01:02:37.715Z,99405.00
2022-09-06T01:04:17.339Z,99400.00
2022-09-06T01:06:09.013Z,99398.00
2022-09-06T01:08:01.384Z,99405.00
2022-09-06T01:09:56.422Z,99404.00
2022-09-06T01:11:58.633Z,99408.00
2022-09-06T01:13:46.173Z,99409.00
2022-09-06T01:15:35.958Z,99413.00
2022-09-06T01:17:27.023Z,99408.00
2022-09-06T01:19:40.705Z,99401.00
2022-09-06T01:21:42.766Z,99420.00
2022-09-06T01:23:50.916Z,99434.00
2022-09-06T01:25:39.482Z,99458.00
2022-09-06T01:27:56.832Z,99467.00
2022-09-06T01:29:40.488Z,99479.00
2022-09-06T01:31:27.918Z,99486.00
2022-09-06T01:33:11.291Z,99485.00
2022-09-06T01:34:50.974Z,99471.00
2022-09-06T01:36:28.203Z,99469.00
2022-09-06T01:38:03.041Z,99471.00
2022-09-06T01:39:38.251Z,99472.00
2022-09-06T01:41:12.222Z,99473.00
2022-09-06T01:42:50.505Z,99478.00
2022-09-06T01:44:26.789Z,99479.00
2022-09-06T01:46:13.298Z,99473.00
2022-09-06T01:48:04.607Z,99476.00
2022-09-06T01:49:55.944Z,99477.00
2022-09-06T01:51:44.019Z,99475.00
2022-09-06T01:53:37.758Z,99476.00
2022-09-06T01:55:27.471Z,99480.00
2022-09-06T01:57:16.156Z,99482.00
2022-09-06T01:59:22.646Z,99483.00
2022-09-06T02:01:03.412Z,99483.00
2022-09-06T02:02:54.615Z,99478.00
2022-09-06T02:04:37.638Z,99478.00
2022-09-06T02:06:18.282Z,99469.00
2022-09-06T02:07:59.163Z,99468.00
2022-09-06T02:09:41.381Z,99468.00
2022-09-06T02:11:17.494Z,99460.00
2022-09-06T02:12:56.344Z,99464.00
2022-09-06T02:14:37.914Z,99453.00
2022-09-06T02:16:17.135Z,99459.00
2022-09-06T02:18:00.482Z,99457.00
2022-09-06T02:19:40.523Z,99468.00
2022-09-06T02:21:17.911Z,99467.00
2022-09-06T02:22:54.297Z,99462.00
2022-09-06T02:24:35.078Z,99456.00
2022-09-06T02:26:14.495Z,99459.00
2022-09-06T02:27:47.046Z,99462.00
2022-09-06T02:29:20.799Z,99466.00
2022-09-06T02:31:01.981Z,99456.00
2022-09-06T02:32:41.599Z,99459.00
2022-09-06T02:34:18.482Z,99458.00
2022-09-06T02:35:56.183Z,99453.00
2022-09-06T02:37:29.923Z,99454.00
2022-09-06T02:39:02.406Z,99448.00
2022-09-06T02:40:36.352Z,99452.00
2022-09-06T02:42:14.210Z,99457.00
2022-09-06T02:43:47.564Z,99453.00
2022-09-06T02:45:20.883Z,99448.00
2022-09-06T02:46:57.286Z,99442.00
2022-09-06T02:48:31.443Z,99446.00
2022-09-06T02:50:05.210Z,99457.00
2022-09-06T02:51:40.020Z,99455.00
2022-09-06T02:53:15.764Z,99453.00
2022-09-06T02:54:49.172Z,99446.00
2022-09-06T02:56:22.973Z,99444.00
2022-09-06T02:57:56.387Z,99437.00
2022-09-06T03:00:26.147Z,99441.00
2022-09-06T03:02:01.351Z,99431.00
2022-09-06T03:03:34.975Z,99428.00
2022-09-06T03:05:10.154Z,99428.00
2022-09-06T03:06:43.797Z,99424.00
2022-09-06T03:08:18.161Z,99426.00
2022-09-06T03:09:51.536Z,99424.00
2022-09-06T03:11:24.841Z,99425.00
2022-09-06T03:12:58.607Z,99433.00
2022-09-06T03:14:32.719Z,99431.00
2022-09-06T03:16:06.123Z,99433.00
2022-09-06T03:17:41.314Z,99422.00
2022-09-06T03:19:14.925Z,99422.00
2022-09-06T03:20:51.054Z,99423.00
2022-09-06T03:22:24.679Z,99436.00
2022-09-06T03:23:59.260Z,99438.00
2022-09-06T03:25:31.748Z,99440.00
2022-09-06T03:27:05.432Z,99428.00
2022-09-06T03:28:39.439Z,99429.00
2022-09-06T03:30:13.131Z,99425.00
2022-09-06T03:31:46.650Z,99430.00
2022-09-06T03:33:22.644Z,99424.00
2022-09-06T03:34:56.183Z,99425.00
2022-09-06T03:36:29.630Z,99437.00
2022-09-06T03:38:03.434Z,99437.00
2022-09-06T03:39:35.979Z,99443.00
2022-09-06T03:41:09.430Z,99445.00
2022-09-06T03:42:41.980Z,99445.00
2022-09-06T03:44:15.767Z,99442.00
2022-09-06T03:45:51.623Z,99456.00
2022-09-06T03:47:25.096Z,99457.00
2022-09-06T03:49:01.998Z,99453.00
2022-09-06T03:50:35.333Z,99461.00
2022-09-06T03:52:08.197Z,99466.00
2022-09-06T03:53:41.698Z,99465.00
2022-09-06T03:55:15.095Z,99459.00
2022-09-06T03:56:48.566Z,99461.00
2022-09-06T03:58:24.836Z,99449.00
2022-09-06T03:59:58.442Z,99457.00
2022-09-06T04:01:32.186Z,99461.00
2022-09-06T04:03:06.324Z,99449.00
2022-09-06T04:04:40.997Z,99448.00
2022-09-06T04:06:14.508Z,99458.00
2022-09-06T04:07:47.039Z,99464.00
2022-09-06T04:09:20.456Z,99459.00
2022-09-06T04:10:56.017Z,99455.00
2022-09-06T04:12:29.878Z,99453.00
2022-09-06T04:14:03.321Z,99457.00
2022-09-06T04:15:37.105Z,99449.00
2022-09-06T04:17:10.839Z,99450.00
2022-09-06T04:18:43.305Z,99449.00
2022-09-06T04:20:18.605Z,99444.00
2022-09-06T04:21:52.071Z,99439.00
2022-09-06T04:23:27.924Z,99431.00
2022-09-06T04:25:01.487Z,99428.00
2022-09-06T04:26:35.172Z,99435.00
2022-09-06T04:28:08.060Z,99425.00
2022-09-06T04:29:42.031Z,99429.00
2022-09-06T04:31:15.926Z,99427.00
2022-09-06T04:32:49.331Z,99427.00
2022-09-06T04:34:23.860Z,99433.00
2022-09-06T04:36:01.799Z,99435.00
2022-09-06T04:37:35.412Z,99426.00
2022-09-06T04:39:09.080Z,99437.00
2022-09-06T04:40:42.950Z,99421.00
2022-09-06T04:42:16.785Z,99433.00
2022-09-06T04:43:50.704Z,99433.00
2022-09-06T04:45:24.811Z,99430.00
2022-09-06T04:47:09.826Z,99428.00
2022-09-06T04:48:43.203Z,99434.00
2022-09-06T04:50:16.719Z,99424.00
2022-09-06T04:51:56.205Z,99419.00
2022-09-06T04:53:29.946Z,99429.00
2022-09-06T04:55:03.297Z,99420.00
2022-09-06T04:56:36.732Z,99414.00
2022-09-06T04:58:10.340Z,99426.00
2022-09-06T04:59:44.576Z,99426.00
2022-09-06T05:01:17.619Z,99432.00
2022-09-06T05:02:51.156Z,99423.00
2022-09-06T05:04:24.617Z,99423.00
2022-09-06T05:06:08.073Z,99422.00
2022-09-06T05:07:42.943Z,99424.00
2022-09-06T05:09:16.803Z,99419.00
2022-09-06T05:10:53.067Z,99430.00
2022-09-06T05:12:26.487Z,99435.00
2022-09-06T05:13:59.875Z,99434.00
2022-09-06T05:15:33.598Z,99439.00
2022-09-06T05:17:07.163Z,99430.00
2022-09-06T05:18:40.818Z,99433.00
2022-09-06T05:20:14.717Z,99433.00
2022-09-06T05:21:48.695Z,99439.00
2022-09-06T05:23:24.563Z,99440.00
2022-09-06T05:24:57.992Z,99428.00
2022-09-06T05:26:31.595Z,99437.00
2022-09-06T05:28:05.191Z,99436.00
2022-09-06T05:29:38.679Z,99440.00
2022-09-06T05:31:24.801Z,99446.00
2022-09-06T05:32:58.351Z,99441.00
2022-09-06T05:34:31.871Z,99441.00
2022-09-06T05:36:07.252Z,99446.00
2022-09-06T05:37:41.219Z,99443.00
2022-09-06T05:39:19.072Z,99451.00
2022-09-06T05:40:52.726Z,99453.00
2022-09-06T05:42:26.126Z,99448.00
2022-09-06T05:43:59.598Z,99449.00
2022-09-06T05:45:33.145Z,99453.00
2022-09-06T05:47:07.737Z,99454.00
2022-09-06T05:48:41.353Z,99446.00
2022-09-06T05:50:15.278Z,99457.00
2022-09-06T05:51:52.686Z,99457.00
2022-09-06T05:53:26.128Z,99454.00
2022-09-06T05:55:00.861Z,99449.00
2022-09-06T05:56:34.823Z,99448.00
2022-09-06T05:58:08.117Z,99454.00
2022-09-06T05:59:41.759Z,99443.00
2022-09-06T06:01:20.698Z,99453.00
2022-09-06T06:02:55.632Z,99445.00
2022-09-06T06:04:29.131Z,99445.00
2022-09-06T06:06:02.716Z,99444.00
2022-09-06T06:07:36.106Z,99445.00
2022-09-06T06:09:09.686Z,99444.00
2022-09-06T06:10:44.386Z,99445.00
2022-09-06T06:12:17.791Z,99440.00
2022-09-06T06:13:51.721Z,99441.00
2022-09-06T06:15:25.227Z,99431.00
2022-09-06T06:16:59.117Z,99442.00
2022-09-06T06:18:32.606Z,99437.00
2022-09-06T06:20:07.248Z,99446.00
2022-09-06T06:21:40.866Z,99437.00
2022-09-06T06:23:15.971Z,99437.00
2022-09-06T06:24:49.631Z,99444.00
2022-09-06T06:26:24.864Z,99441.00
2022-09-06T06:27:58.298Z,99442.00
2022-09-06T06:29:31.653Z,99437.00
2022-09-06T06:31:05.986Z,99436.00
2022-09-06T06:32:40.277Z,99433.00
2022-09-06T06:34:13.663Z,99438.00
2022-09-06T06:35:59.531Z,99434.00
2022-09-06T06:37:34.467Z,99439.00
2022-09-06T06:39:09.627Z,99432.00
2022-09-06T06:40:47.153Z,99436.00
2022-09-06T06:42:21.882Z,99435.00
2022-09-06T06:44:02.174Z,99430.00
2022-09-06T06:45:35.495Z,99433.00
2022-09-06T06:47:09.239Z,99428.00
2022-09-06T06:48:43.649Z,99427.00
2022-09-06T06:50:17.202Z,99430.00
2022-09-06T06:51:50.552Z,99429.00
2022-09-06T06:53:24.262Z,99425.00
2022-09-06T06:54:57.534Z,99426.00
2022-09-06T06:56:33.358Z,99425.00
2022-09-06T06:58:08.367Z,99415.00
2022-09-06T06:59:41.915Z,99413.00
2022-09-06T07:01:16.897Z,99418.00
2022-09-06T07:02:50.331Z,99408.00
2022-09-06T07:04:23.840Z,99409.00
2022-09-06T07:06:12.586Z,99398.00
2022-09-06T07:07:46.515Z,99406.00
2022-09-06T07:09:21.223Z,99397.00
2022-09-06T07:10:54.638Z,99407.00
2022-09-06T07:12:28.172Z,99411.00
2022-09-06T07:14:03.755Z,99413.00
2022-09-06T07:15:37.285Z,99411.00
2022-09-06T07:17:10.646Z,99421.00
2022-09-06T07:18:45.788Z,99409.00
2022-09-06T07:20:20.354Z,99416.00
2022-09-06T07:21:53.844Z,99408.00
2022-09-06T07:25:21.730Z,99408.00
2022-09-06T07:28:48.938Z,99393.00
2022-09-06T07:30:23.854Z,99397.00
2022-09-06T07:32:13.211Z,99401.00
2022-09-06T07:33:46.618Z,99393.00
2022-09-06T07:35:21.546Z,99391.00
2022-09-06T07:36:56.077Z,99406.00
2022-09-06T07:38:31.087Z,99402.00
2022-09-06T07:40:05.904Z,99401.00
2022-09-06T07:41:39.340Z,99401.00
2022-09-06T07:43:13.054Z,99390.00
2022-09-06T07:44:46.675Z,99394.00
2022-09-06T07:46:23.192Z,99389.00
2022-09-06T07:47:59.666Z,99396.00
2022-09-06T07:49:34.828Z,99395.00
2022-09-06T07:51:11.261Z,99383.00
2022-09-06T07:54:38.587Z,99379.00
2022-09-06T07:56:13.883Z,99387.00
2022-09-06T07:57:47.348Z,99385.00
2022-09-06T07:59:21.278Z,99378.00
2022-09-06T08:00:54.696Z,99380.00
2022-09-06T08:02:31.045Z,99384.00
2022-09-06T08:04:08.522Z,99384.00
2022-09-06T08:07:38.694Z,99379.00
2022-09-06T08:09:12.459Z,99382.00
2022-09-06T08:10:51.020Z,99382.00
2022-09-06T08:12:25.512Z,99381.00
2022-09-06T08:14:01.072Z,99378.00
2022-09-06T08:15:34.556Z,99384.00
2022-09-06T08:17:08.047Z,99390.00
2022-09-06T08:18:42.987Z,99395.00
2022-09-06T08:20:16.579Z,99383.00
2022-09-06T08:21:50.275Z,99394.00
2022-09-06T08:23:23.687Z,99390.00
2022-09-06T08:24:57.349Z,99392.00
2022-09-06T08:26:33.894Z,99383.00
2022-09-06T08:28:07.389Z,99383.00
2022-09-06T08:29:41.296Z,99384.00
2022-09-06T08:31:17.988Z,99376.00
2022-09-06T08:32:52.019Z,99390.00
2022-09-06T08:34:26.955Z,99391.00
2022-09-06T08:36:00.585Z,99391.00
2022-09-06T08:37:33.936Z,99389.00
2022-09-06T08:39:10.136Z,99390.00
2022-09-06T08:40:43.717Z,99394.00
2022-09-06T08:42:17.383Z,99399.00
2022-09-06T08:45:57.663Z,99392.00
2022-09-06T08:47:31.751Z,99389.00
2022-09-06T08:49:06.351Z,99387.00
2022-09-06T08:50:52.421Z,99404.00
2022-09-06T08:53:15.627Z,99399.00
2022-09-06T08:54:56.778Z,99392.00
2022-09-06T08:56:39.032Z,99396.00
2022-09-06T08:58:41.267Z,99397.00
2022-09-06T09:00:15.777Z,99394.00
2022-09-06T09:02:02.329Z,99388.00
2022-09-06T09:03:39.112Z,99387.00
2022-09-06T09:05:25.785Z,99387.00
2022-09-06T09:07:12.004Z,99392.00
2022-09-06T09:08:59.215Z,99397.00
2022-09-06T09:10:42.450Z,99398.00
2022-09-06T09:12:21.580Z,99385.00
2022-09-06T09:14:01.594Z,99381.00
2022-09-06T09:15:40.359Z,99382.00
2022-09-06T09:17:21.827Z,99385.00
2022-09-06T09:19:00.292Z,99376.00
2022-09-06T09:20:33.859Z,99389.00
2022-09-06T09:22:08.739Z,99381.00
2022-09-06T09:23:42.335Z,99375.00
2022-09-06T09:25:23.791Z,99379.00
2022-09-06T09:27:06.709Z,99379.00
2022-09-06T09:28:40.569Z,99370.00
2022-09-06T09:32:08.834Z,99367.00
2022-09-06T09:33:42.574Z,99371.00
2022-09-06T09:35:31.425Z,99379.00
2022-09-06T09:39:16.868Z,99371.00
2022-09-06T09:40:55.935Z,99379.00
2022-09-06T09:42:34.840Z,99371.00
2022-09-06T09:44:16.966Z,99365.00
2022-09-06T09:46:17.756Z,99366.00
2022-09-06T09:47:51.737Z,99358.00
2022-09-06T09:49:32.359Z,99354.00
2022-09-06T09:51:27.031Z,99360.00
2022-09-06T09:53:13.613Z,99358.00
2022-09-06T09:54:47.808Z,99354.00
2022-09-06T09:56:38.547Z,99362.00
2022-09-06T09:58:29.720Z,99363.00
2022-09-06T10:00:08.151Z,99355.00
2022-09-06T10:01:44.864Z,99366.00
2022-09-06T10:03:29.208Z,99358.00
2022-09-06T10:05:09.800Z,99354.00
2022-09-06T10:08:44.286Z,99355.00
2022-09-06T10:10:25.011Z,99359.00
2022-09-06T10:12:00.555Z,99349.00
2022-09-06T10:13:34.514Z,99345.00
2022-09-06T10:15:10.734Z,99346.00
2022-09-06T10:16:45.815Z,99346.00
2022-09-06T10:18:32.909Z,99337.00
2022-09-06T10:20:09.964Z,99334.00
2022-09-06T10:21:43.429Z,99344.00
2022-09-06T10:25:49.640Z,99352.00
2022-09-06T10:27:28.572Z,99358.00
2022-09-06T10:29:06.362Z,99360.00
2022-09-06T10:30:51.824Z,99346.00
2022-09-06T10:32:40.151Z,99354.00
2022-09-06T10:34:53.343Z,99347.00
2022-09-06T10:36:35.698Z,99344.00
2022-09-06T10:38:41.612Z,99348.00
2022-09-06T10:40:29.240Z,99342.00
2022-09-06T10:42:20.825Z,99333.00
2022-09-06T10:44:07.297Z,99332.00
2022-09-06T10:45:50.536Z,99329.00
2022-09-06T10:47:39.379Z,99336.00
2022-09-06T10:49:20.678Z,99339.00
2022-09-06T10:51:01.565Z,99345.00
2022-09-06T10:52:43.780Z,99340.00
2022-09-06T10:54:22.951Z,99335.00
2022-09-06T10:56:07.859Z,99340.00
2022-09-06T10:59:52.037Z,99349.00
2022-09-06T11:01:39.155Z,99342.00
2022-09-06T11:05:41.333Z,99335.00
2022-09-06T11:07:28.404Z,99334.00
2022-09-06T11:09:13.755Z,99336.00
2022-09-06T11:10:51.172Z,99339.00
2022-09-06T11:12:36.128Z,99332.00
2022-09-06T11:14:15.540Z,99332.00
2022-09-06T11:15:56.737Z,99335.00
2022-09-06T11:17:41.063Z,99327.00
2022-09-06T11:19:22.578Z,99332.00
2022-09-06T11:21:23.011Z,99332.00
2022-09-06T11:23:36.935Z,99327.00
2022-09-06T11:26:16.301Z,99326.00
2022-09-06T11:27:57.926Z,99325.00
2022-09-06T11:29:36.228Z,99329.00
2022-09-06T11:33:24.892Z,99330.00
2022-09-06T11:35:05.679Z,99326.00
2022-09-06T11:36:47.692Z,99325.00
2022-09-06T11:38:27.547Z,99333.00
2022-09-06T11:40:32.113Z,99336.00
2022-09-06T11:42:10.256Z,99336.00
2022-09-06T11:43:48.815Z,99329.00
2022-09-06T11:45:43.058Z,99334.00
2022-09-06T11:47:39.464Z,99334.00
2022-09-06T11:49:35.188Z,99335.00
2022-09-06T11:51:12.447Z,99327.00
2022-09-06T11:53:12.752Z,99326.00
2022-09-06T11:54:49.269Z,99322.00
2022-09-06T11:56:32.498Z,99325.00
2022-09-06T11:58:20.170Z,99329.00
2022-09-06T12:00:01.558Z,99322.00
2022-09-06T12:01:40.883Z,99315.00
2022-09-06T12:04:08.312Z,99326.00
2022-09-06T12:06:17.644Z,99321.00
2022-09-06T12:08:34.613Z,99315.00
2022-09-06T12:10:51.016Z,99308.00
2022-09-06T12:12:40.585Z,99322.00
2022-09-06T12:14:32.111Z,99318.00
2022-09-06T12:16:05.686Z,99315.00
2022-09-06T12:17:49.021Z,99310.00
2022-09-06T12:19:45.265Z,99307.00
2022-09-06T12:21:43.955Z,99308.00
2022-09-06T12:23:42.699Z,99313.00
2022-09-06T12:25:21.207Z,99313.00
2022-09-06T12:27:16.678Z,99315.00
2022-09-06T12:28:53.349Z,99322.00
2022-09-06T12:30:38.088Z,99305.00
2022-09-06T12:32:12.403Z,99311.00
2022-09-06T12:33:48.094Z,99313.00
2022-09-06T12:37:35.231Z,99306.00
2022-09-06T12:39:13.200Z,99311.00
2022-09-06T12:40:51.566Z,99305.00
2022-09-06T12:42:25.079Z,99318.00
2022-09-06T12:44:03.060Z,99313.00
2022-09-06T12:45:42.984Z,99307.00
2022-09-06T12:47:28.425Z,99307.00
2022-09-06T12:49:08.105Z,99296.00
2022-09-06T12:50:41.493Z,99294.00
2022-09-06T12:52:20.816Z,99298.00
2022-09-06T12:53:56.541Z,99293.00
2022-09-06T12:55:36.935Z,99295.00
2022-09-06T12:57:18.289Z,99294.00
2022-09-06T12:58:52.447Z,99289.00
2022-09-06T13:00:32.669Z,99285.00
2022-09-06T13:02:13.674Z,99285.00
2022-09-06T13:03:57.728Z,99291.00
2022-09-06T13:05:34.197Z,99290.00
2022-09-06T13:07:13.434Z,99293.00
2022-09-06T13:08:52.579Z,99290.00
2022-09-06T13:10:28.815Z,99289.00
2022-09-06T13:12:20.831Z,99287.00
2022-09-06T13:13:56.427Z,99285.00
2022-09-06T13:15:31.902Z,99294.00
2022-09-06T13:17:05.548Z,99289.00
2022-09-06T13:18:39.949Z,99291.00
2022-09-06T13:20:16.590Z,99284.00
2022-09-06T13:21:51.928Z,99292.00
2022-09-06T13:23:25.312Z,99286.00
2022-09-06T13:24:58.701Z,99289.00
2022-09-06T13:26:38.740Z,99278.00
2022-09-06T13:28:12.042Z,99279.00
2022-09-06T13:29:57.804Z,99283.00
2022-09-06T13:31:31.725Z,99274.00
2022-09-06T13:33:07.637Z,99284.00
2022-09-06T13:34:56.686Z,99272.00
2022-09-06T13:36:32.004Z,99274.00
2022-09-06T13:38:39.628Z,99272.00
2022-09-06T13:40:59.998Z,99272.00
2022-09-06T13:42:34.074Z,99279.00
2022-09-06T13:44:29.564Z,99269.00
2022-09-06T13:46:08.196Z,99264.00
2022-09-06T13:47:41.762Z,99269.00
2022-09-06T13:49:15.636Z,99268.00
2022-09-06T13:50:48.915Z,99271.00
2022-09-06T13:52:23.271Z,99274.00
2022-09-06T13:54:08.912Z,99277.00
2022-09-06T13:55:44.632Z,99273.00
2022-09-06T13:57:23.600Z,99269.00
2022-09-06T13:58:59.910Z,99272.00
2022-09-06T14:00:33.339Z,99272.00
2022-09-06T14:02:10.643Z,99272.00
2022-09-06T14:03:44.527Z,99273.00
2022-09-06T14:05:19.791Z,99288.00
2022-09-06T14:06:54.121Z,99285.00
2022-09-06T14:08:38.848Z,99278.00
2022-09-06T14:10:24.001Z,99284.00
2022-09-06T14:11:57.987Z,99279.00
2022-09-06T14:13:32.337Z,99273.00
2022-09-06T14:15:07.347Z,99270.00
2022-09-06T14:16:41.524Z,99278.00
2022-09-06T14:18:16.419Z,99270.00
2022-09-06T14:19:50.666Z,99275.00
2022-09-06T14:21:24.104Z,99280.00
2022-09-06T14:22:57.885Z,99274.00
2022-09-06T14:24:31.480Z,99279.00
2022-09-06T14:26:06.803Z,99279.00
2022-09-06T14:27:40.632Z,99271.00
2022-09-06T14:29:14.078Z,99280.00
2022-09-06T14:30:47.477Z,99277.00
2022-09-06T14:32:22.693Z,99277.00
2022-09-06T14:33:58.257Z,99272.00
2022-09-06T14:35:32.808Z,99274.00
2022-09-06T14:37:08.362Z,99270.00
2022-09-06T14:38:47.331Z,99268.00
2022-09-06T14:40:20.939Z,99267.00
2022-09-06T14:41:56.117Z,99271.00
2022-09-06T14:43:29.761Z,99265.00
2022-09-06T14:45:03.247Z,99258.00
2022-09-06T14:46:36.921Z,99261.00
2022-09-06T14:48:10.530Z,99256.00
2022-09-06T14:49:44.463Z,99262.00
2022-09-06T14:51:22.373Z,99253.00
2022-09-06T14:52:56.197Z,99256.00
2022-09-06T14:54:29.812Z,99246.00
2022-09-06T14:56:03.233Z,99244.00
2022-09-06T14:57:38.276Z,99240.00
2022-09-06T14:59:12.331Z,99243.00
2022-09-06T15:00:46.620Z,99248.00
2022-09-06T15:02:20.517Z,99238.00
2022-09-06T15:03:59.095Z,99244.00
2022-09-06T15:05:33.297Z,99233.00
2022-09-06T15:07:08.632Z,99228.00
2022-09-06T15:08:42.782Z,99226.00
2022-09-06T15:10:16.500Z,99232.00
2022-09-06T15:11:52.188Z,99227.00
2022-09-06T15:13:28.096Z,99230.00
2022-09-06T15:15:02.698Z,99229.00
2022-09-06T15:16:36.909Z,99221.00
2022-09-06T15:18:10.808Z,99222.00
2022-09-06T15:19:44.270Z,99219.00
2022-09-06T15:21:19.138Z,99213.00
2022-09-06T15:23:03.871Z,99208.00
2022-09-06T15:24:46.439Z,99213.00
2022-09-06T15:26:20.455Z,99214.00
2022-09-06T15:27:53.886Z,99206.00
2022-09-06T15:29:28.832Z,99209.00
2022-09-06T15:31:02.667Z,99210.00
2022-09-06T15:32:36.310Z,99205.00
2022-09-06T15:34:11.929Z,99211.00
2022-09-06T15:35:45.727Z,99203.00
2022-09-06T15:37:19.324Z,99213.00
2022-09-06T15:38:54.187Z,99209.00
2022-09-06T15:40:28.081Z,99204.00
2022-09-06T15:42:01.712Z,99205.00
2022-09-06T15:43:36.284Z,99211.00
2022-09-06T15:45:13.185Z,99198.00
2022-09-06T15:46:51.182Z,99202.00
2022-09-06T15:48:24.955Z,99198.00
2022-09-06T15:50:00.945Z,99203.00
2022-09-06T15:51:36.741Z,99194.00
2022-09-06T15:53:10.439Z,99196.00
2022-09-06T15:55:01.537Z,99197.00
2022-09-06T15:56:36.242Z,99200.00
2022-09-06T15:58:09.869Z,99196.00
2022-09-06T15:59:43.520Z,99201.00
2022-09-06T16:01:21.840Z,99193.00
2022-09-06T16:02:57.248Z,99197.00
2022-09-06T16:04:30.908Z,99186.00
2022-09-06T16:07:57.924Z,99191.00
2022-09-06T16:09:32.032Z,99192.00
2022-09-06T16:11:11.219Z,99184.00
2022-09-06T16:12:48.678Z,99182.00
2022-09-06T16:14:25.298Z,99183.00
2022-09-06T16:15:59.407Z,99187.00
2022-09-06T16:17:34.685Z,99194.00
2022-09-06T16:19:09.904Z,99189.00
2022-09-06T16:20:43.942Z,99189.00
2022-09-06T16:22:17.732Z,99188.00
2022-09-06T16:23:54.694Z,99182.00
2022-09-06T16:25:28.541Z,99178.00
2022-09-06T16:27:02.196Z,99182.00
2022-09-06T16:28:38.032Z,99176.00
2022-09-06T16:30:15.204Z,99175.00
2022-09-06T16:31:54.073Z,99176.00
2022-09-06T16:33:28.280Z,99177.00
2022-09-06T16:35:03.826Z,99182.00
2022-09-06T16:36:38.102Z,99189.00
2022-09-06T16:38:11.800Z,99190.00
2022-09-06T16:39:45.712Z,99185.00
2022-09-06T16:41:23.864Z,99187.00
2022-09-06T16:42:57.878Z,99184.00
2022-09-06T16:44:31.599Z,99182.00
2022-09-06T16:46:05.480Z,99185.00
2022-09-06T16:47:39.484Z,99186.00
2022-09-06T16:49:16.672Z,99179.00
2022-09-06T16:50:50.198Z,99186.00
2022-09-06T16:52:23.768Z,99180.00
2022-09-06T16:53:58.746Z,99180.00
2022-09-06T16:55:32.722Z,99180.00
2022-09-06T16:57:06.478Z,99185.00
2022-09-06T16:58:41.955Z,99180.00
2022-09-06T17:00:16.869Z,99184.00
2022-09-06T17:01:51.492Z,99173.00
2022-09-06T17:03:26.784Z,99179.00
2022-09-06T17:05:01.800Z,99170.00
2022-09-06T17:06:44.273Z,99178.00
2022-09-06T17:08:18.227Z,99174.00
2022-09-06T17:09:51.965Z,99176.00
2022-09-06T17:11:27.522Z,99177.00
2022-09-06T17:13:01.176Z,99178.00
2022-09-06T17:14:36.217Z,99179.00
2022-09-06T17:16:27.727Z,99180.00
2022-09-06T17:18:02.014Z,99179.00
2022-09-06T17:19:40.311Z,99177.00
2022-09-06T17:21:15.784Z,99180.00
2022-09-06T17:22:54.432Z,99180.00
2022-09-06T17:24:28.586Z,99180.00
2022-09-06T17:26:02.979Z,99175.00
2022-09-06T17:27:38.777Z,99175.00
2022-09-06T17:29:12.431Z,99180.00
2022-09-06T17:30:46.136Z,99176.00
2022-09-06T17:32:19.769Z,99173.00
2022-09-06T17:33:52.589Z,99179.00
2022-09-06T17:35:26.390Z,99170.00
2022-09-06T17:37:04.389Z,99175.00
2022-09-06T17:38:38.960Z,99169.00
2022-09-06T17:40:13.031Z,99167.00
2022-09-06T17:41:49.812Z,99172.00
2022-09-06T17:43:23.443Z,99176.00
2022-09-06T17:44:57.005Z,99173.00
2022-09-06T17:46:30.491Z,99180.00
2022-09-06T17:48:06.186Z,99176.00
2022-09-06T17:49:40.266Z,99169.00
2022-09-06T17:51:13.871Z,99169.00
2022-09-06T17:52:53.513Z,99178.00
2022-09-06T17:54:27.857Z,99172.00
2022-09-06T17:56:05.359Z,99175.00
2022-09-06T17:57:40.064Z,99175.00
2022-09-06T17:59:15.710Z,99184.00
2022-09-06T18:00:50.531Z,99181.00
2022-09-06T18:02:24.461Z,99183.00
2022-09-06T18:03:59.120Z,99186.00
2022-09-06T18:05:37.252Z,99188.00
2022-09-06T18:07:10.756Z,99191.00
2022-09-06T18:08:46.096Z,99178.00
2022-09-06T18:10:23.171Z,99187.00
2022-09-06T18:11:58.305Z,99186.00
2022-09-06T18:13:33.060Z,99188.00
2022-09-06T18:15:08.544Z,99199.00
2022-09-06T18:16:45.045Z,99192.00
2022-09-06T18:18:19.783Z,99188.00
2022-09-06T18:19:54.333Z,99199.00
2022-09-06T18:21:30.934Z,99187.00
2022-09-06T18:23:05.429Z,99195.00
2022-09-06T18:24:40.674Z,99192.00
2022-09-06T18:26:14.784Z,99197.00
2022-09-06T18:27:49.169Z,99189.00
2022-09-06T18:29:23.973Z,99184.00
2022-09-06T18:31:00.009Z,99184.00
2022-09-06T18:32:33.659Z,99175.00
2022-09-06T18:34:09.539Z,99180.00
2022-09-06T18:35:44.288Z,99184.00
2022-09-06T18:37:17.743Z,99187.00
2022-09-06T18:38:51.680Z,99179.00
2022-09-06T18:40:27.283Z,99182.00
2022-09-06T18:42:00.404Z,99190.00
2022-09-06T18:43:37.284Z,99185.00
2022-09-06T18:45:11.910Z,99186.00
2022-09-06T18:46:46.127Z,99193.00
2022-09-06T18:48:20.885Z,99188.00
2022-09-06T18:49:54.633Z,99190.00
2022-09-06T18:51:29.197Z,99189.00
2022-09-06T18:53:02.685Z,99183.00
2022-09-06T18:54:36.645Z,99186.00
2022-09-06T18:56:13.199Z,99186.00
2022-09-06T18:57:46.927Z,99187.00
2022-09-06T18:59:20.742Z,99190.00
2022-09-06T19:00:55.325Z,99199.00
2022-09-06T19:02:29.285Z,99205.00
2022-09-06T19:04:04.024Z,99191.00
2022-09-06T19:05:37.815Z,99199.00
2022-09-06T19:07:11.699Z,99196.00
2022-09-06T19:08:45.161Z,99201.00
2022-09-06T19:10:18.803Z,99200.00
2022-09-06T19:11:54.039Z,99198.00
2022-09-06T19:13:27.768Z,99198.00
2022-09-06T19:15:02.462Z,99197.00
2022-09-06T19:16:36.139Z,99202.00
2022-09-06T19:18:10.466Z,99194.00
2022-09-06T19:19:44.005Z,99202.00
2022-09-06T19:21:20.035Z,99194.00
2022-09-06T19:22:53.987Z,99197.00
2022-09-06T19:24:28.082Z,99182.00
2022-09-06T19:26:03.951Z,99186.00
2022-09-06T19:27:39.936Z,99184.00
2022-09-06T19:29:20.904Z,99190.00
2022-09-06T19:30:55.345Z,99180.00
2022-09-06T19:32:29.136Z,99185.00
2022-09-06T19:34:02.387Z,99193.00
2022-09-06T19:35:50.813Z,99205.00
2022-09-06T19:37:32.003Z,99195.00
2022-09-06T19:39:10.411Z,99186.00